Time;durP1;ratioP1;P1;durP2;ratioP2;P2;SDS_P1;SDS_P2;PMS_P1;PMS_P2;Temp;Humidity;BMP_temperature;BMP_pressure;BME280_temperature;BME280_humidity;BME280_pressure;Samples;Min_cycle;Max_cycle;Signal;HPM_P1;HPM_P2
2021/07/05 00:00:35;;;;;;;6.05;3.72;;;19.20;99.90;;;;;;5135592;27;20111;-79
2021/07/05 00:03:01;;;;;;;6.80;4.20;;;19.20;99.90;;;;;;5135938;27;20057;-78
2021/07/05 00:05:27;;;;;;;6.57;4.07;;;19.10;99.90;;;;;;5135451;27;20329;-77
2021/07/05 00:07:52;;;;;;;6.97;4.22;;;19.10;99.90;;;;;;5133962;27;20417;-78
2021/07/05 00:10:22;;;;;;;4.90;4.00;;;19.20;99.90;;;;;;5135545;27;20084;-78
2021/07/05 00:12:48;;;;;;;7.43;4.20;;;19.20;99.90;;;;;;5135164;27;20019;-77
2021/07/05 00:15:19;;;;;;;7.50;5.20;;;19.20;99.90;;;;;;5135477;27;20326;-77
2021/07/05 00:17:47;;;;;;;7.88;3.72;;;19.20;99.90;;;;;;5135143;27;20031;-79
2021/07/05 00:20:13;;;;;;;7.75;4.35;;;19.20;99.90;;;;;;5135288;27;20061;-78
2021/07/05 00:22:39;;;;;;;6.75;4.50;;;19.20;99.90;;;;;;5135273;27;20449;-78
2021/07/05 00:25:05;;;;;;;7.38;4.55;;;19.10;99.90;;;;;;5134933;27;20035;-78
2021/07/05 00:27:31;;;;;;;7.63;4.28;;;19.20;99.90;;;;;;5135040;27;20069;-78
2021/07/05 00:29:57;;;;;;;7.68;4.35;;;19.20;99.90;;;;;;5134321;27;20047;-78
2021/07/05 00:32:22;;;;;;;12.65;4.50;;;19.20;99.90;;;;;;5133906;27;20024;-78
2021/07/05 00:34:48;;;;;;;6.55;4.72;;;19.10;99.90;;;;;;5133877;27;20062;-77
2021/07/05 00:37:14;;;;;;;7.38;4.22;;;19.10;99.90;;;;;;5134562;27;20031;-78
2021/07/05 00:39:39;;;;;;;5.03;4.10;;;19.10;99.90;;;;;;5134208;27;20059;-77
2021/07/05 00:42:05;;;;;;;6.03;3.95;;;19.10;99.90;;;;;;5135065;27;20469;-78
2021/07/05 00:44:31;;;;;;;6.68;4.00;;;19.10;99.90;;;;;;5133647;27;20110;-80
2021/07/05 00:46:56;;;;;;;8.25;4.07;;;19.10;99.90;;;;;;5134822;27;20047;-76
2021/07/05 00:49:22;;;;;;;10.90;4.60;;;19.10;99.90;;;;;;5134892;27;20053;-78
2021/07/05 00:51:48;;;;;;;6.65;4.05;;;19.10;99.90;;;;;;5134639;27;20015;-76
2021/07/05 00:54:14;;;;;;;8.05;4.28;;;19.10;99.90;;;;;;5135066;27;20019;-76
2021/07/05 00:56:39;;;;;;;5.68;3.53;;;19.00;99.90;;;;;;5135073;27;20068;-77
2021/07/05 00:59:05;;;;;;;6.10;4.25;;;19.10;99.90;;;;;;5134309;27;20111;-78
2021/07/05 01:01:31;;;;;;;12.32;4.32;;;19.00;99.90;;;;;;5134326;27;20035;-77
2021/07/05 01:03:57;;;;;;;6.50;4.22;;;19.00;99.90;;;;;;5134345;27;20042;-77
2021/07/05 01:06:22;;;;;;;8.65;4.18;;;19.00;99.90;;;;;;5134141;27;20023;-76
2021/07/05 01:08:48;;;;;;;5.15;3.70;;;19.00;99.90;;;;;;5134330;27;20092;-78
2021/07/05 01:11:14;;;;;;;7.50;4.18;;;19.10;99.90;;;;;;5134018;27;20034;-78
2021/07/05 01:13:40;;;;;;;6.20;3.60;;;19.00;99.90;;;;;;5134055;27;20142;-77
2021/07/05 01:16:05;;;;;;;10.13;4.50;;;19.00;99.90;;;;;;5134180;27;20291;-78
2021/07/05 01:18:31;;;;;;;7.20;4.07;;;19.00;99.90;;;;;;5134037;27;20568;-78
2021/07/05 01:20:59;;;;;;;5.40;4.20;;;19.00;99.90;;;;;;5134669;27;20066;-77
2021/07/05 01:23:25;;;;;;;8.77;4.97;;;19.00;99.90;;;;;;5134058;27;20460;-79
2021/07/05 01:25:50;;;;;;;8.23;4.57;;;19.00;99.90;;;;;;5133737;27;20027;-78
2021/07/05 01:28:16;;;;;;;7.60;5.47;;;19.00;99.90;;;;;;5133641;27;20421;-78
2021/07/05 01:30:42;;;;;;;8.75;5.90;;;19.00;99.90;;;;;;5133668;27;20019;-76
2021/07/05 01:33:10;;;;;;;8.50;5.50;;;19.00;99.90;;;;;;5134064;27;20038;-78
2021/07/05 01:35:36;;;;;;;14.75;7.60;;;19.00;99.90;;;;;;5133488;27;20027;-78
2021/07/05 01:38:09;;;;;;;15.10;7.13;;;19.00;99.90;;;;;;5133488;27;20065;-79
2021/07/05 01:40:36;;;;;;;12.55;8.20;;;19.00;99.90;;;;;;5132462;27;20513;-79
2021/07/05 01:43:02;;;;;;;13.15;7.43;;;19.00;99.90;;;;;;5133478;27;20468;-78
2021/07/05 01:45:31;;;;;;;9.02;6.53;;;19.00;99.90;;;;;;5133616;27;20019;-79
2021/07/05 01:47:58;;;;;;;9.93;7.72;;;19.00;99.90;;;;;;5133474;27;20520;-77
2021/07/05 01:50:24;;;;;;;19.10;8.45;;;19.00;99.90;;;;;;5132443;27;20128;-77
2021/07/05 01:52:52;;;;;;;15.27;9.13;;;19.00;99.90;;;;;;5133377;27;20082;-77
2021/07/05 01:55:31;;;;;;;15.75;9.63;;;19.00;99.90;;;;;;5132179;27;20384;-77
2021/07/05 01:57:58;;;;;;;17.23;9.93;;;18.90;99.90;;;;;;5133121;27;20034;-77
2021/07/05 02:00:25;;;;;;;12.77;9.88;;;18.90;99.90;;;;;;5132681;27;20015;-78
2021/07/05 02:02:52;;;;;;;14.10;9.52;;;18.90;99.90;;;;;;5133014;27;20038;-77
2021/07/05 02:05:19;;;;;;;12.18;10.13;;;18.90;99.90;;;;;;5133082;27;20031;-78
2021/07/05 02:07:46;;;;;;;12.60;9.30;;;18.90;99.90;;;;;;5133143;27;20040;-78
2021/07/05 02:10:15;;;;;;;13.87;10.47;;;18.90;99.90;;;;;;5131994;27;20027;-77
2021/07/05 02:12:42;;;;;;;14.35;10.07;;;18.90;99.90;;;;;;5133027;27;20093;-77
2021/07/05 02:15:11;;;;;;;15.68;10.95;;;18.90;99.90;;;;;;5133502;27;20030;-76
2021/07/05 02:17:38;;;;;;;15.77;10.45;;;18.90;99.90;;;;;;5132256;27;20027;-77
2021/07/05 02:20:09;;;;;;;15.30;10.77;;;18.90;99.90;;;;;;5131535;27;20059;-77
2021/07/05 02:22:35;;;;;;;18.33;11.35;;;18.80;99.90;;;;;;5132713;27;20039;-78
2021/07/05 02:25:02;;;;;;;16.88;10.50;;;18.90;99.90;;;;;;5132700;27;20031;-78
2021/07/05 02:27:28;;;;;;;16.17;11.20;;;18.80;99.90;;;;;;5131984;27;20031;-77
2021/07/05 02:29:54;;;;;;;22.70;11.77;;;18.70;99.90;;;;;;5133098;27;20041;-79
2021/07/05 02:32:19;;;;;;;14.77;10.95;;;18.70;99.90;;;;;;5132571;27;20036;-77
2021/07/05 02:34:45;;;;;;;14.80;11.05;;;18.70;99.90;;;;;;5131569;27;20122;-77
2021/07/05 02:37:11;;;;;;;17.58;10.18;;;18.70;99.90;;;;;;5132353;27;20055;-77
2021/07/05 02:39:36;;;;;;;19.50;10.70;;;18.80;99.90;;;;;;5132219;27;20107;-76
2021/07/05 02:42:02;;;;;;;17.17;11.15;;;18.80;99.90;;;;;;5132949;27;20023;-78
2021/07/05 02:44:28;;;;;;;21.73;11.80;;;18.80;99.90;;;;;;5132332;27;20031;-78
2021/07/05 02:46:53;;;;;;;14.23;10.65;;;18.80;99.90;;;;;;5131188;27;20051;-78
2021/07/05 02:49:19;;;;;;;17.02;10.27;;;18.80;99.90;;;;;;5132162;27;20388;-79
2021/07/05 02:51:45;;;;;;;15.98;11.27;;;18.80;99.90;;;;;;5131995;27;20064;-78
2021/07/05 02:54:10;;;;;;;14.00;10.48;;;18.70;99.90;;;;;;5132550;27;20023;-79
2021/07/05 02:56:36;;;;;;;14.15;10.60;;;18.70;99.90;;;;;;5132260;27;20467;-78
2021/07/05 02:59:02;;;;;;;20.25;10.00;;;18.70;99.90;;;;;;5133411;27;20033;-78
2021/07/05 03:01:27;;;;;;;13.35;10.30;;;18.70;99.90;;;;;;5131097;27;20181;-79
2021/07/05 03:03:53;;;;;;;15.95;10.60;;;18.70;99.90;;;;;;5131789;27;20035;-78
2021/07/05 03:06:18;;;;;;;16.30;10.50;;;18.60;99.90;;;;;;5132366;27;20501;-78
2021/07/05 03:08:44;;;;;;;19.20;9.43;;;18.50;99.90;;;;;;5131991;27;20031;-77
2021/07/05 03:11:10;;;;;;;14.80;10.65;;;18.40;99.90;;;;;;5131996;27;20032;-79
2021/07/05 03:13:36;;;;;;;18.75;11.18;;;18.50;99.90;;;;;;5132081;27;20035;-77
2021/07/05 03:16:02;;;;;;;19.23;9.30;;;18.50;99.90;;;;;;5131759;27;20037;-77
2021/07/05 03:18:27;;;;;;;17.00;10.32;;;18.50;99.90;;;;;;5132071;27;20023;-79
2021/07/05 03:20:53;;;;;;;21.77;10.55;;;18.50;99.90;;;;;;5130668;27;20026;-77
2021/07/05 03:23:21;;;;;;;18.58;11.18;;;18.50;99.90;;;;;;5131470;27;20027;-77
2021/07/05 03:25:47;;;;;;;14.52;10.10;;;18.50;99.90;;;;;;5131473;27;20114;-78
2021/07/05 03:28:15;;;;;;;20.10;10.70;;;18.50;99.90;;;;;;5131524;27;20106;-77
2021/07/05 03:30:43;;;;;;;19.98;10.07;;;18.50;99.90;;;;;;5131490;27;20106;-78
2021/07/05 03:33:09;;;;;;;16.27;9.75;;;18.50;99.90;;;;;;5132005;27;20037;-78
2021/07/05 03:35:36;;;;;;;21.75;10.45;;;18.50;99.90;;;;;;5131494;27;20465;-79
2021/07/05 03:38:03;;;;;;;25.10;11.68;;;18.50;99.90;;;;;;5131924;27;20483;-78
2021/07/05 03:40:31;;;;;;;14.50;10.60;;;18.40;99.90;;;;;;5131677;27;20486;-78
2021/07/05 03:42:57;;;;;;;15.63;10.77;;;18.40;99.90;;;;;;5130816;27;20024;-77
2021/07/05 03:45:26;;;;;;;17.75;10.80;;;18.30;99.90;;;;;;5132014;27;20019;-77
2021/07/05 03:47:53;;;;;;;25.48;11.07;;;18.40;99.90;;;;;;5131504;27;20031;-78
2021/07/05 03:50:20;;;;;;;14.35;10.23;;;18.40;99.90;;;;;;5131614;27;20050;-79
2021/07/05 03:52:46;;;;;;;17.10;10.93;;;18.40;99.90;;;;;;5131911;27;20035;-78
2021/07/05 03:55:15;;;;;;;11.65;9.48;;;18.40;99.90;;;;;;5131661;27;20039;-78
2021/07/05 03:57:40;;;;;;;22.55;10.35;;;18.30;99.90;;;;;;5131120;27;20118;-79
2021/07/05 04:00:09;;;;;;;15.75;9.98;;;18.30;99.90;;;;;;5130966;28;20588;-80
2021/07/05 04:02:35;;;;;;;13.43;9.43;;;18.30;99.90;;;;;;5131411;27;20114;-79
2021/07/05 04:05:01;;;;;;;16.73;9.80;;;18.30;99.90;;;;;;5131236;27;20549;-78
2021/07/05 04:07:27;;;;;;;13.80;7.97;;;18.40;99.90;;;;;;5130332;27;20031;-79
2021/07/05 04:09:53;;;;;;;14.70;7.93;;;18.30;99.90;;;;;;5131212;27;20103;-79
2021/07/05 04:12:21;;;;;;;12.77;7.25;;;18.30;99.90;;;;;;5131981;27;20027;-79
2021/07/05 04:14:49;;;;;;;13.85;7.88;;;18.30;99.90;;;;;;5130007;27;20019;-78
2021/07/05 04:17:15;;;;;;;11.45;8.02;;;18.30;99.90;;;;;;5131423;27;20552;-79
2021/07/05 04:19:44;;;;;;;11.07;7.65;;;18.30;99.90;;;;;;5131369;27;20122;-78
2021/07/05 04:22:11;;;;;;;12.02;7.78;;;18.30;99.90;;;;;;5131542;27;20042;-79
2021/07/05 04:24:36;;;;;;;13.25;7.90;;;18.20;99.90;;;;;;5130988;27;20081;-80
2021/07/05 04:27:03;;;;;;;13.35;7.75;;;18.20;99.90;;;;;;5131779;27;20027;-78
2021/07/05 04:29:28;;;;;;;13.38;7.55;;;18.20;99.90;;;;;;5130210;27;20481;-78
2021/07/05 04:31:54;;;;;;;15.43;7.63;;;18.30;99.90;;;;;;5131171;27;20128;-79
2021/07/05 04:34:19;;;;;;;14.10;7.65;;;18.30;99.90;;;;;;5131403;27;20023;-77
2021/07/05 04:36:45;;;;;;;13.02;6.50;;;18.20;99.90;;;;;;5131028;27;20023;-77
2021/07/05 04:39:10;;;;;;;12.85;6.68;;;18.20;99.90;;;;;;5131418;27;20066;-77
2021/07/05 04:41:36;;;;;;;9.55;5.15;;;18.20;99.90;;;;;;5132191;27;20034;-77
2021/07/05 04:44:03;;;;;;;17.27;6.55;;;18.20;99.90;;;;;;5134997;27;20039;-78
2021/07/05 04:46:28;;;;;;;7.63;5.22;;;18.20;99.90;;;;;;5134983;27;20035;-77
2021/07/05 04:48:54;;;;;;;7.85;4.53;;;18.20;99.90;;;;;;5134423;27;20492;-78
2021/07/05 04:51:23;;;;;;;9.57;4.88;;;18.20;99.90;;;;;;5135172;27;20023;-78
2021/07/05 04:53:49;;;;;;;14.35;5.93;;;18.20;99.90;;;;;;5133739;27;20031;-77
2021/07/05 04:56:14;;;;;;;7.03;4.45;;;18.20;99.90;;;;;;5134440;27;20051;-77
2021/07/05 04:58:40;;;;;;;8.10;4.72;;;18.20;99.90;;;;;;5134603;27;20078;-80
2021/07/05 05:01:07;;;;;;;16.40;6.25;;;18.10;99.90;;;;;;5134355;27;20027;-77
2021/07/05 05:03:32;;;;;;;9.20;4.20;;;18.10;99.90;;;;;;5133232;27;20099;-77
2021/07/05 05:05:58;;;;;;;7.22;4.00;;;18.10;99.90;;;;;;5134679;27;20449;-78
2021/07/05 05:08:24;;;;;;;8.93;4.10;;;18.10;99.90;;;;;;5134476;27;20028;-78
2021/07/05 05:10:49;;;;;;;6.72;4.00;;;18.10;99.90;;;;;;5134059;27;20196;-78
2021/07/05 05:13:15;;;;;;;9.40;3.67;;;18.10;99.90;;;;;;5134033;27;20096;-77
2021/07/05 05:15:40;;;;;;;6.35;3.80;;;18.10;99.90;;;;;;5134247;27;20031;-79
2021/07/05 05:18:06;;;;;;;9.68;3.58;;;18.00;99.90;;;;;;5134313;27;20440;-79
2021/07/05 05:20:33;;;;;;;3.70;3.10;;;18.00;99.90;;;;;;5133790;27;20031;-78
2021/07/05 05:22:59;;;;;;;4.93;3.72;;;18.00;99.90;;;;;;5133967;27;20035;-79
2021/07/05 05:25:25;;;;;;;10.57;3.92;;;18.00;99.90;;;;;;5133657;27;20062;-77
2021/07/05 05:27:51;;;;;;;4.60;3.00;;;18.00;99.90;;;;;;5133706;27;20031;-78
2021/07/05 05:30:18;;;;;;;8.48;2.95;;;18.10;99.90;;;;;;5133928;27;20066;-76
2021/07/05 05:32:46;;;;;;;4.85;2.45;;;18.00;99.90;;;;;;5120820;27;20035;-77
2021/07/05 05:35:13;;;;;;;4.18;2.88;;;18.00;99.90;;;;;;5113115;28;20391;-77
2021/07/05 05:37:38;;;;;;;5.30;2.28;;;18.00;99.90;;;;;;5111844;28;20088;-77
2021/07/05 05:40:05;;;;;;;5.60;2.55;;;17.90;99.90;;;;;;5112767;27;20115;-77
2021/07/05 05:42:31;;;;;;;8.23;2.60;;;17.90;99.90;;;;;;5113253;28;20165;-78
2021/07/05 05:44:56;;;;;;;12.43;3.10;;;17.90;99.90;;;;;;5113003;28;20450;-77
2021/07/05 05:47:22;;;;;;;4.75;2.22;;;17.90;99.90;;;;;;5111375;28;20039;-78
2021/07/05 05:49:47;;;;;;;5.22;2.40;;;18.00;99.90;;;;;;5111807;28;20023;-79
2021/07/05 05:52:13;;;;;;;7.57;2.28;;;18.10;99.90;;;;;;5112375;28;20032;-80
2021/07/05 05:54:39;;;;;;;7.03;1.88;;;18.20;99.90;;;;;;5110788;28;20088;-79
2021/07/05 05:57:05;;;;;;;2.78;1.80;;;18.20;99.90;;;;;;5113186;28;20019;-76
2021/07/05 05:59:34;;;;;;;5.03;2.05;;;18.30;99.90;;;;;;5112543;28;20027;-84
2021/07/05 06:02:00;;;;;;;3.70;1.70;;;18.30;99.90;;;;;;5112462;28;20493;-78
2021/07/05 06:04:25;;;;;;;4.80;2.08;;;18.40;99.90;;;;;;5112448;28;20044;-79
2021/07/05 06:06:52;;;;;;;6.88;1.80;;;18.30;99.90;;;;;;5112508;28;20035;-81
2021/07/05 06:09:18;;;;;;;4.18;1.98;;;18.40;99.90;;;;;;5112987;28;20428;-80
2021/07/05 06:11:44;;;;;;;4.43;1.88;;;18.50;99.90;;;;;;5112287;28;20035;-81
2021/07/05 06:14:12;;;;;;;2.92;1.50;;;18.50;99.90;;;;;;5112228;28;20032;-82
2021/07/05 06:16:38;;;;;;;2.58;1.52;;;18.50;99.90;;;;;;5112089;28;20047;-82
2021/07/05 06:19:04;;;;;;;4.32;1.48;;;18.60;99.90;;;;;;5112566;28;20484;-82
2021/07/05 06:21:32;;;;;;;2.83;1.45;;;18.60;99.90;;;;;;5112199;28;20194;-80
2021/07/05 06:23:59;;;;;;;4.03;1.90;;;18.70;99.90;;;;;;5111484;28;20426;-78
2021/07/05 06:26:25;;;;;;;3.90;1.42;;;18.70;99.90;;;;;;5112179;27;20185;-80
2021/07/05 06:28:51;;;;;;;6.63;1.80;;;18.70;99.90;;;;;;5112028;28;20134;-81
2021/07/05 06:31:18;;;;;;;4.07;1.60;;;18.70;99.90;;;;;;5111729;27;20107;-78
2021/07/05 06:33:44;;;;;;;10.13;2.38;;;18.70;99.90;;;;;;5111098;28;20019;-78
2021/07/05 06:36:11;;;;;;;8.30;2.65;;;18.70;99.90;;;;;;5111477;28;20116;-80
2021/07/05 06:38:37;;;;;;;3.35;2.20;;;18.80;99.90;;;;;;5112139;27;20031;-81
2021/07/05 06:41:03;;;;;;;3.65;2.15;;;18.80;99.90;;;;;;5111987;28;20590;-78
2021/07/05 06:43:28;;;;;;;6.47;2.53;;;18.90;99.90;;;;;;5111070;28;20414;-80
2021/07/05 06:45:54;;;;;;;5.15;2.80;;;18.90;99.90;;;;;;5112696;27;20636;-78
2021/07/05 06:48:21;;;;;;;9.95;2.30;;;19.00;99.90;;;;;;5112686;28;20028;-79
2021/07/05 06:50:46;;;;;;;3.58;1.70;;;19.00;99.90;;;;;;5111795;27;20027;-78
2021/07/05 06:53:12;;;;;;;9.30;2.10;;;19.00;99.90;;;;;;5111587;28;20513;-78
2021/07/05 06:55:38;;;;;;;3.95;1.95;;;19.10;99.90;;;;;;5111375;28;20032;-77
2021/07/05 06:58:04;;;;;;;8.77;1.55;;;19.20;99.90;;;;;;5111690;28;20031;-79
2021/07/05 07:00:30;;;;;;;5.25;1.73;;;19.30;99.90;;;;;;5110317;28;20020;-79
2021/07/05 07:02:57;;;;;;;2.30;1.55;;;19.40;99.90;;;;;;5111708;28;20468;-75
2021/07/05 07:05:24;;;;;;;1.65;1.50;;;19.40;99.90;;;;;;5109717;28;20373;-76
2021/07/05 07:07:55;;;;;;;3.17;1.52;;;19.50;99.90;;;;;;5111447;28;20187;-79
2021/07/05 07:10:23;;;;;;;4.15;1.85;;;19.60;99.90;;;;;;5110123;28;20093;-80
2021/07/05 07:12:49;;;;;;;3.15;1.60;;;19.70;99.90;;;;;;5111504;28;20197;-79
2021/07/05 07:15:21;;;;;;;4.78;1.55;;;19.80;99.90;;;;;;5111818;28;20087;-81
2021/07/05 07:20:14;;;;;;;3.58;1.45;;;20.00;99.90;;;;;;5111014;28;20361;-76
2021/07/05 07:22:39;;;;;;;3.78;1.73;;;20.20;99.90;;;;;;5110838;28;20027;-78
2021/07/05 07:25:08;;;;;;;4.05;1.52;;;20.40;99.90;;;;;;5110133;28;20038;-76
2021/07/05 07:27:34;;;;;;;4.50;1.45;;;20.40;99.80;;;;;;5110910;28;20027;-73
2021/07/05 07:30:00;;;;;;;5.80;2.00;;;20.60;99.80;;;;;;5110363;28;20042;-75
2021/07/05 07:32:26;;;;;;;3.55;1.90;;;20.70;99.70;;;;;;5111133;28;20028;-76
2021/07/05 07:34:52;;;;;;;2.33;1.80;;;20.90;99.70;;;;;;5111147;28;20132;-76
2021/07/05 07:37:17;;;;;;;3.30;1.80;;;21.00;99.50;;;;;;5110983;28;20032;-76
2021/07/05 07:39:46;;;;;;;4.70;1.70;;;21.10;99.30;;;;;;5109278;28;20050;-76
2021/07/05 07:42:12;;;;;;;6.47;1.60;;;21.20;98.80;;;;;;5111634;28;20024;-77
2021/07/05 07:44:37;;;;;;;2.92;1.25;;;21.30;98.40;;;;;;5110870;28;20168;-75
2021/07/05 07:47:04;;;;;;;3.17;1.50;;;21.30;98.30;;;;;;5110914;28;20019;-75
2021/07/05 07:49:31;;;;;;;6.38;1.70;;;21.50;98.50;;;;;;5109910;28;20110;-75
2021/07/05 07:52:01;;;;;;;2.35;1.70;;;21.80;98.30;;;;;;5109658;28;20080;-75
2021/07/05 07:54:27;;;;;;;3.17;1.80;;;22.00;97.60;;;;;;5110996;28;20027;-74
2021/07/05 07:56:53;;;;;;;6.40;3.45;;;22.10;97.60;;;;;;5110495;28;20031;-76
2021/07/05 07:59:20;;;;;;;4.70;2.38;;;22.20;97.00;;;;;;5110528;28;20047;-75
2021/07/05 08:01:46;;;;;;;2.90;1.67;;;22.30;97.00;;;;;;5110973;28;20039;-78
2021/07/05 08:04:12;;;;;;;3.90;1.70;;;22.30;96.90;;;;;;5110724;28;20481;-79
2021/07/05 08:06:37;;;;;;;5.47;1.40;;;22.20;96.60;;;;;;5108468;28;20457;-76
2021/07/05 08:09:05;;;;;;;2.53;1.50;;;22.30;96.30;;;;;;5110917;28;20453;-75
2021/07/05 08:11:31;;;;;;;2.95;1.67;;;22.30;96.20;;;;;;5108924;28;20066;-76
2021/07/05 08:14:01;;;;;;;5.60;1.70;;;22.20;96.20;;;;;;5109463;28;20142;-77
2021/07/05 08:16:27;;;;;;;1.95;1.50;;;22.20;96.40;;;;;;5111795;28;20107;-77
2021/07/05 08:18:52;;;;;;;2.05;1.50;;;22.20;96.80;;;;;;5114725;28;20027;-78
2021/07/05 08:21:18;;;;;;;2.50;1.40;;;22.10;96.90;;;;;;5113693;28;20039;-75
2021/07/05 08:23:44;;;;;;;3.58;1.58;;;22.10;96.90;;;;;;5114217;27;20031;-77
2021/07/05 08:26:10;;;;;;;3.10;1.33;;;22.10;97.00;;;;;;5114131;27;20266;-76
2021/07/05 08:28:36;;;;;;;4.53;2.17;;;22.00;96.20;;;;;;5114187;28;20031;-76
2021/07/05 08:31:04;;;;;;;3.63;2.25;;;21.90;96.40;;;;;;5114170;28;20100;-80
2021/07/05 08:33:31;;;;;;;4.00;1.38;;;21.80;96.50;;;;;;5113913;28;20596;-76
2021/07/05 08:35:58;;;;;;;1.45;1.23;;;21.70;96.90;;;;;;5114843;28;20098;-78
2021/07/05 08:38:25;;;;;;;2.45;1.10;;;21.80;96.80;;;;;;5113145;28;20020;-75
2021/07/05 08:40:51;;;;;;;3.13;1.27;;;21.80;97.00;;;;;;5113114;28;20044;-81
2021/07/05 08:43:17;;;;;;;1.40;1.30;;;21.80;97.10;;;;;;5114030;27;20039;-76
2021/07/05 08:45:44;;;;;;;4.75;1.60;;;21.90;97.20;;;;;;5113988;28;20110;-72
2021/07/05 08:48:13;;;;;;;4.03;1.50;;;21.90;97.20;;;;;;5114692;28;20082;-75
2021/07/05 08:50:41;;;;;;;2.97;1.67;;;22.00;97.00;;;;;;5112296;28;20044;-76
2021/07/05 08:53:07;;;;;;;2.53;1.10;;;21.90;97.20;;;;;;5114040;28;20032;-72
2021/07/05 08:55:33;;;;;;;2.80;1.25;;;21.90;97.30;;;;;;5114110;28;20084;-79
2021/07/05 08:57:58;;;;;;;2.63;1.30;;;21.90;97.50;;;;;;5113880;27;20023;-76
2021/07/05 09:00:26;;;;;;;1.38;1.23;;;21.90;97.20;;;;;;5113364;28;20035;-76
2021/07/05 09:02:54;;;;;;;2.47;1.20;;;21.70;96.90;;;;;;5113736;28;20362;-76
2021/07/05 09:05:20;;;;;;;6.32;1.52;;;21.70;96.90;;;;;;5113384;28;20032;-76
2021/07/05 09:08:03;;;;;;;1.35;1.25;;;21.70;97.00;;;;;;5113793;28;20035;-75
2021/07/05 09:10:40;;;;;;;3.63;1.35;;;21.70;97.10;;;;;;5113430;28;20397;-76
2021/07/05 09:13:08;;;;;;;3.37;1.53;;;21.80;97.30;;;;;;5112143;28;20399;-74
2021/07/05 09:15:35;;;;;;;;;;;21.90;97.50;;;;;;5113911;28;20016;-74
2021/07/05 09:18:01;;;;;;;2.90;1.77;;;21.90;97.60;;;;;;5114184;28;19919;-74
2021/07/05 09:20:26;;;;;;;5.22;2.28;;;21.80;97.40;;;;;;5113530;28;20024;-74
2021/07/05 09:23:09;;;;;;;4.97;2.53;;;21.80;97.70;;;;;;5112311;28;20405;-74
2021/07/05 09:25:37;;;;;;;2.92;1.95;;;21.70;97.90;;;;;;5113095;28;20488;-75
2021/07/05 09:28:04;;;;;;;4.85;2.25;;;21.70;98.10;;;;;;5113170;28;20020;-76
2021/07/05 09:30:42;;;;;;;1.80;1.52;;;21.60;98.10;;;;;;5112914;28;20498;-75
2021/07/05 09:33:19;;;;;;;3.65;1.67;;;21.60;98.40;;;;;;5113058;28;20024;-76
2021/07/05 09:35:51;;;;;;;2.92;2.20;;;21.50;98.40;;;;;;5113061;27;20042;-76
2021/07/05 09:38:34;;;;;;;2.30;1.65;;;21.50;98.60;;;;;;5112921;28;20047;-76
2021/07/05 09:41:25;;;;;;;6.35;1.48;;;21.50;98.60;;;;;;5113055;28;20043;-75
2021/07/05 09:43:55;;;;;;;6.38;1.80;;;21.50;98.20;;;;;;5112980;28;20047;-73
2021/07/05 09:46:45;;;;;;;2.70;1.20;;;21.40;97.80;;;;;;5112814;28;20038;-77
2021/07/05 09:49:15;;;;;;;1.77;1.00;;;21.40;97.60;;;;;;5112805;27;20474;-76
2021/07/05 09:51:43;;;;;;;2.65;1.25;;;21.40;97.70;;;;;;5112608;27;20357;-77
2021/07/05 09:54:09;;;;;;;2.05;1.17;;;21.30;97.70;;;;;;5113128;28;20024;-76
2021/07/05 09:56:35;;;;;;;3.05;1.92;;;21.30;97.90;;;;;;5112690;28;20657;-76
2021/07/05 09:59:16;;;;;;;3.00;1.52;;;21.20;98.00;;;;;;5112752;28;20152;-77
2021/07/05 10:01:46;;;;;;;8.95;1.90;;;21.10;98.20;;;;;;5111872;28;20040;-78
2021/07/05 10:04:27;;;;;;;7.03;1.77;;;21.10;98.50;;;;;;5112591;28;20031;-77
2021/07/05 10:07:00;;;;;;;6.10;2.38;;;20.90;99.10;;;;;;5112371;28;20433;-76
2021/07/05 10:09:42;;;;;;;4.28;2.00;;;20.70;99.90;;;;;;5113061;28;20052;-77
2021/07/05 10:12:26;;;;;;;3.67;2.00;;;20.50;99.90;;;;;;5112383;28;20054;-77
2021/07/05 10:15:11;;;;;;;3.65;2.13;;;20.20;99.90;;;;;;5112482;27;20365;-78
2021/07/05 10:17:40;;;;;;;2.72;1.67;;;20.10;99.90;;;;;;5112322;28;20465;-76
2021/07/05 10:20:11;;;;;;;;;;;19.90;99.90;;;;;;5111632;28;20401;-84
2021/07/05 10:22:42;;;;;;;3.83;1.10;;;19.80;99.90;;;;;;5112251;28;20080;-81
2021/07/05 10:25:09;;;;;;;2.90;1.00;;;19.70;99.90;;;;;;5112306;27;20047;-80
2021/07/05 10:27:35;;;;;;;3.08;1.05;;;19.70;99.90;;;;;;5112102;28;20032;-81
2021/07/05 10:30:05;;;;;;;1.52;1.10;;;19.70;99.90;;;;;;5112895;28;20087;-84
2021/07/05 10:32:30;;;;;;;1.60;1.00;;;19.70;99.90;;;;;;5112233;28;20039;-80
2021/07/05 10:34:56;;;;;;;3.83;0.70;;;19.60;99.90;;;;;;5112064;28;20713;-80
2021/07/05 10:37:34;;;;;;;2.97;0.90;;;19.50;99.90;;;;;;5110481;28;20051;-82
2021/07/05 10:40:01;;;;;;;1.80;0.75;;;19.40;99.90;;;;;;5111380;28;20096;-81
2021/07/05 10:42:36;;;;;;;1.53;0.53;;;19.40;99.90;;;;;;5112325;28;20081;-80
2021/07/05 10:45:08;;;;;;;2.25;0.60;;;19.50;99.90;;;;;;5112079;28;20039;-82
2021/07/05 10:47:53;;;;;;;1.20;0.68;;;19.50;99.90;;;;;;5111909;28;20031;-82
2021/07/05 10:50:47;;;;;;;0.43;0.38;;;19.50;99.90;;;;;;5111748;28;20024;-79
2021/07/05 10:53:36;;;;;;;1.15;0.30;;;19.50;99.90;;;;;;5111737;27;20058;-79
2021/07/05 10:56:22;;;;;;;2.60;0.50;;;19.60;99.90;;;;;;5104320;28;20058;-80
2021/07/05 10:58:48;;;;;;;1.45;0.90;;;19.60;99.90;;;;;;5112653;28;20031;-86
2021/07/05 11:01:16;;;;;;;1.02;0.75;;;19.60;99.90;;;;;;5113461;28;20034;-85
2021/07/05 11:03:41;;;;;;;;;;;19.60;99.90;;;;;;5116873;28;20046;-88
2021/07/05 11:06:26;;;;;;;4.97;1.13;;;19.50;99.90;;;;;;5113925;28;19900;-87
2021/07/05 11:08:53;;;;;;;2.42;0.85;;;19.70;99.90;;;;;;5118969;28;20036;-88
2021/07/05 11:11:24;;;;;;;5.38;1.35;;;19.70;99.90;;;;;;5112211;28;20027;-87
2021/07/05 11:14:20;;;;;;;2.67;1.33;;;19.80;99.90;;;;;;5112322;28;20035;-87
2021/07/05 11:17:04;;;;;;;2.33;1.08;;;19.80;99.90;;;;;;5121106;28;20043;-86
2021/07/05 11:19:35;;;;;;;4.68;1.20;;;19.90;99.90;;;;;;5115007;28;20369;-91
2021/07/05 11:22:05;;;;;;;5.45;1.70;;;19.90;99.90;;;;;;5128234;28;20028;-91
2021/07/05 11:24:43;;;;;;;2.78;1.70;;;19.90;99.90;;;;;;5122884;28;20568;-86
2021/07/05 11:27:28;;;;;;;6.18;1.90;;;20.00;99.90;;;;;;5120374;28;20020;-86
2021/07/05 11:29:55;;;;;;;5.07;1.75;;;20.10;99.90;;;;;;5119752;28;20032;-87
2021/07/05 11:32:41;;;;;;;5.53;2.15;;;20.20;99.90;;;;;;5126253;28;20091;-87
2021/07/05 11:35:30;;;;;;;2.90;1.90;;;20.50;99.90;;;;;;5130863;28;20085;-91
2021/07/05 11:38:05;;;;;;;6.93;1.90;;;20.80;99.90;;;;;;5114018;28;20024;-87
2021/07/05 11:40:45;;;;;;;6.65;1.95;;;21.00;99.90;;;;;;5115437;28;20051;-88
2021/07/05 11:43:13;;;;;;;2.15;1.45;;;21.10;99.90;;;;;;5111129;28;20036;-86
2021/07/05 11:45:50;;;;;;;6.80;2.00;;;21.20;99.90;;;;;;5112066;28;20081;-85
2021/07/05 11:48:40;;;;;;;2.47;1.45;;;21.20;99.90;;;;;;5116941;28;20034;-87
2021/07/05 11:51:20;;;;;;;5.22;2.15;;;21.50;99.90;;;;;;5114999;28;20050;-84
2021/07/05 11:53:49;;;;;;;2.40;1.60;;;21.60;99.90;;;;;;5115685;28;20080;-85
2021/07/05 11:56:35;;;;;;;2.08;1.30;;;21.70;99.90;;;;;;5115465;27;20031;-86
2021/07/05 11:59:04;;;;;;;1.55;1.08;;;21.70;99.90;;;;;;5114297;28;20039;-84
2021/07/05 12:01:31;;;;;;;2.17;1.70;;;21.80;99.90;;;;;;5116785;28;20377;-87
2021/07/05 12:03:59;;;;;;;3.55;2.03;;;21.90;99.90;;;;;;5118437;28;20024;-92
2021/07/05 12:06:25;;;;;;;5.75;1.63;;;22.00;99.90;;;;;;5118183;28;20020;-86
2021/07/05 12:08:56;;;;;;;1.02;0.80;;;22.00;99.90;;;;;;5114656;28;20055;-86
2021/07/05 12:11:29;;;;;;;4.90;0.95;;;22.00;99.90;;;;;;5116600;28;20024;-85
2021/07/05 12:14:11;;;;;;;3.58;1.05;;;22.20;99.50;;;;;;5114911;28;20027;-84
2021/07/05 12:16:38;;;;;;;1.58;0.60;;;22.10;98.80;;;;;;5114234;28;20531;-84
2021/07/05 12:19:04;;;;;;;1.33;0.93;;;22.10;99.00;;;;;;5115033;28;20024;-84
2021/07/05 12:21:35;;;;;;;1.17;0.80;;;22.20;99.30;;;;;;5114898;28;20034;-85
2021/07/05 12:24:09;;;;;;;1.48;0.88;;;22.10;98.90;;;;;;5115483;28;20031;-82
2021/07/05 12:26:50;;;;;;;2.47;0.80;;;22.10;98.40;;;;;;5114572;28;20031;-82
2021/07/05 12:29:34;;;;;;;0.82;0.70;;;22.10;98.60;;;;;;5113558;28;20043;-88
2021/07/05 12:32:13;;;;;;;3.20;0.90;;;22.20;98.50;;;;;;5115244;28;20035;-86
2021/07/05 12:34:40;;;;;;;1.13;0.80;;;22.20;99.40;;;;;;5114039;28;20020;-85
2021/07/05 12:37:11;;;;;;;2.70;0.80;;;22.20;99.00;;;;;;5115878;28;20016;-88
2021/07/05 12:40:03;;;;;;;1.67;0.80;;;22.00;98.40;;;;;;5115016;28;20663;-87
2021/07/05 12:42:40;;;;;;;1.40;1.00;;;22.10;98.60;;;;;;5115671;28;20027;-92
2021/07/05 12:45:13;;;;;;;0.57;0.57;;;22.10;98.80;;;;;;5116451;28;20080;-90
2021/07/05 12:47:54;;;;;;;1.23;0.80;;;22.20;98.70;;;;;;5115350;28;20083;-89
2021/07/05 12:50:51;;;;;;;3.63;1.10;;;22.20;98.50;;;;;;5113891;28;20053;-89
2021/07/05 12:53:25;;;;;;;1.67;1.05;;;22.20;98.30;;;;;;5106195;28;20031;-90